createdAt,value
2022-08-29T00:00:28.181Z,2.20
2022-08-29T00:02:57.215Z,1.90
2022-08-29T00:05:29.045Z,2.13
2022-08-29T00:07:56.827Z,2.07
2022-08-29T00:10:23.405Z,1.60
2022-08-29T00:12:50.270Z,1.80
2022-08-29T00:15:17.760Z,1.70
2022-08-29T00:17:44.780Z,1.70
2022-08-29T00:20:16.776Z,1.40
2022-08-29T00:22:43.558Z,1.80
2022-08-29T00:25:13.021Z,1.93
2022-08-29T00:27:39.850Z,1.50
2022-08-29T00:30:09.555Z,1.60
2022-08-29T00:32:36.422Z,1.67
2022-08-29T00:35:07.472Z,2.00
2022-08-29T00:37:34.155Z,1.77
2022-08-29T00:40:00.787Z,1.67
2022-08-29T00:42:28.046Z,1.70
2022-08-29T00:44:54.901Z,1.93
2022-08-29T00:47:26.433Z,1.87
2022-08-29T00:49:55.790Z,2.03
2022-08-29T00:52:33.915Z,1.50
2022-08-29T00:55:02.801Z,1.80
2022-08-29T00:57:32.652Z,2.10
2022-08-29T01:00:00.338Z,1.70
2022-08-29T01:02:28.544Z,1.87
2022-08-29T01:04:55.397Z,1.53
2022-08-29T01:07:22.260Z,1.83
2022-08-29T01:09:50.182Z,1.43
2022-08-29T01:12:16.957Z,1.77
2022-08-29T01:14:51.078Z,1.90
2022-08-29T01:17:33.986Z,1.93
2022-08-29T01:20:25.237Z,1.97
2022-08-29T01:23:09.625Z,1.70
2022-08-29T01:25:39.667Z,1.70
2022-08-29T01:28:25.616Z,1.90
2022-08-29T01:30:58.127Z,1.90
2022-08-29T01:33:24.691Z,1.67
2022-08-29T01:35:51.420Z,2.00
2022-08-29T01:38:27.863Z,1.60
2022-08-29T01:40:59.054Z,1.80
2022-08-29T01:43:27.146Z,1.90
2022-08-29T01:45:54.066Z,1.33
2022-08-29T01:48:21.570Z,1.80
2022-08-29T01:50:48.137Z,1.93
2022-08-29T01:53:15.502Z,1.80
2022-08-29T01:55:42.927Z,1.80
2022-08-29T01:58:09.655Z,1.90
2022-08-29T02:00:36.568Z,1.63
2022-08-29T02:03:04.035Z,2.20
2022-08-29T02:05:31.511Z,2.30
2022-08-29T02:07:58.287Z,1.90
2022-08-29T02:10:25.559Z,1.77
2022-08-29T02:12:53.543Z,1.80
2022-08-29T02:15:21.422Z,1.90
2022-08-29T02:17:48.402Z,1.93
2022-08-29T02:20:18.411Z,1.60
2022-08-29T02:22:44.993Z,1.90
2022-08-29T02:25:30.742Z,2.40
2022-08-29T02:27:58.294Z,1.83
2022-08-29T02:30:25.754Z,1.90
2022-08-29T02:32:52.953Z,2.27
2022-08-29T02:35:19.925Z,2.00
2022-08-29T02:37:47.600Z,2.00
2022-08-29T02:40:14.296Z,2.00
2022-08-29T02:42:41.008Z,1.73
2022-08-29T02:45:08.147Z,2.07
2022-08-29T02:47:36.911Z,2.07
2022-08-29T02:50:09.268Z,2.10
2022-08-29T02:52:42.593Z,2.10
2022-08-29T02:55:15.310Z,1.80
2022-08-29T02:57:43.014Z,1.60
2022-08-29T03:00:14.693Z,2.00
2022-08-29T03:02:41.299Z,1.83
2022-08-29T03:05:08.526Z,2.17
2022-08-29T03:07:35.330Z,1.93
2022-08-29T03:10:02.162Z,2.20
2022-08-29T03:12:28.873Z,1.80
2022-08-29T03:14:59.050Z,2.07
2022-08-29T03:17:25.891Z,2.20
2022-08-29T03:19:52.501Z,2.30
2022-08-29T03:22:19.235Z,2.30
2022-08-29T03:24:46.046Z,2.07
2022-08-29T03:27:13.129Z,2.00
2022-08-29T03:29:39.723Z,2.20
2022-08-29T03:32:06.357Z,2.43
2022-08-29T03:34:33.130Z,2.10
2022-08-29T03:37:00.503Z,2.20
2022-08-29T03:39:27.229Z,2.23
2022-08-29T03:41:53.823Z,2.30
2022-08-29T03:44:21.660Z,2.13
2022-08-29T03:46:48.724Z,2.47
2022-08-29T03:49:18.265Z,2.50
2022-08-29T03:51:44.833Z,3.00
2022-08-29T03:54:11.703Z,2.40
2022-08-29T03:56:38.269Z,2.43
2022-08-29T03:59:04.943Z,2.13
2022-08-29T04:01:31.928Z,2.20
2022-08-29T04:03:58.779Z,2.60
2022-08-29T04:06:28.419Z,2.23
2022-08-29T04:08:56.164Z,2.37
2022-08-29T04:11:24.407Z,2.50
2022-08-29T04:13:53.037Z,3.00
2022-08-29T04:16:30.375Z,2.63
2022-08-29T04:18:57.891Z,2.30
2022-08-29T04:21:25.866Z,2.53
2022-08-29T04:23:54.140Z,3.07
2022-08-29T04:26:37.440Z,3.07
2022-08-29T04:29:06.962Z,2.23
2022-08-29T04:31:34.058Z,2.07
2022-08-29T04:34:00.844Z,2.20
2022-08-29T04:36:28.827Z,2.20
2022-08-29T04:38:55.678Z,2.57
2022-08-29T04:41:22.495Z,2.80
2022-08-29T04:43:49.097Z,2.40
2022-08-29T04:46:23.879Z,2.83
2022-08-29T04:48:52.229Z,2.50
2022-08-29T04:51:18.979Z,2.20
2022-08-29T04:53:45.603Z,2.70
2022-08-29T04:56:13.615Z,2.10
2022-08-29T04:58:44.135Z,2.43
2022-08-29T05:01:19.482Z,2.70
2022-08-29T05:03:46.255Z,2.33
2022-08-29T05:06:15.337Z,2.60
2022-08-29T05:08:43.145Z,2.80
2022-08-29T05:11:12.768Z,2.50
2022-08-29T05:13:39.344Z,3.17
2022-08-29T05:16:12.294Z,2.87
2022-08-29T05:18:39.911Z,2.50
2022-08-29T05:21:06.967Z,2.83
2022-08-29T05:23:34.861Z,2.57
2022-08-29T05:26:04.213Z,2.90
2022-08-29T05:28:32.796Z,2.70
2022-08-29T05:31:00.238Z,2.90
2022-08-29T05:33:27.550Z,2.97
2022-08-29T05:35:54.265Z,2.93
2022-08-29T05:38:20.817Z,3.43
2022-08-29T05:40:47.430Z,3.03
2022-08-29T05:43:14.229Z,3.23
2022-08-29T05:45:41.827Z,3.23
2022-08-29T05:48:09.630Z,3.20
2022-08-29T05:50:43.255Z,3.30
2022-08-29T05:53:13.113Z,2.90
2022-08-29T05:55:43.714Z,3.00
2022-08-29T05:58:11.867Z,3.17
2022-08-29T06:00:43.817Z,3.30
2022-08-29T06:03:11.451Z,2.87
2022-08-29T06:05:39.140Z,3.23
2022-08-29T06:08:06.141Z,3.57
2022-08-29T06:10:33.987Z,3.27
2022-08-29T06:13:00.591Z,3.83
2022-08-29T06:15:28.678Z,3.37
2022-08-29T06:17:56.060Z,2.93
2022-08-29T06:20:23.909Z,3.23
2022-08-29T06:22:50.528Z,2.87
2022-08-29T06:25:37.951Z,3.30
2022-08-29T06:28:04.110Z,3.33
2022-08-29T06:30:33.093Z,3.00
2022-08-29T06:33:00.602Z,3.23
2022-08-29T06:35:27.198Z,3.13
2022-08-29T06:37:53.748Z,2.67
2022-08-29T06:40:20.401Z,3.07
2022-08-29T06:42:47.073Z,3.57
2022-08-29T06:45:13.762Z,3.30
2022-08-29T06:47:40.333Z,3.50
2022-08-29T06:50:07.413Z,3.50
2022-08-29T06:52:34.055Z,2.80
2022-08-29T06:55:02.835Z,3.30
2022-08-29T06:57:29.448Z,3.73
2022-08-29T06:59:56.038Z,3.43
2022-08-29T07:02:22.852Z,3.20
2022-08-29T07:04:49.961Z,3.73
2022-08-29T07:07:16.581Z,3.40
2022-08-29T07:09:44.310Z,4.33
2022-08-29T07:12:11.044Z,4.23
2022-08-29T07:14:37.794Z,3.47
2022-08-29T07:17:04.475Z,4.23
2022-08-29T07:19:31.036Z,4.03
2022-08-29T07:21:59.038Z,4.07
2022-08-29T07:24:26.499Z,4.07
2022-08-29T07:26:53.178Z,4.30
2022-08-29T07:29:21.485Z,4.20
2022-08-29T07:31:49.187Z,4.07
2022-08-29T07:34:20.202Z,4.40
2022-08-29T07:36:49.519Z,4.30
2022-08-29T07:39:19.086Z,3.70
2022-08-29T07:41:46.368Z,4.00
2022-08-29T07:44:14.411Z,3.40
2022-08-29T07:46:42.375Z,3.50
2022-08-29T07:49:09.794Z,3.63
2022-08-29T07:51:36.549Z,3.67
2022-08-29T07:54:04.524Z,3.33
2022-08-29T07:56:37.797Z,3.40
2022-08-29T07:59:06.108Z,3.50
2022-08-29T08:01:33.153Z,3.47
2022-08-29T08:03:59.770Z,2.87
2022-08-29T08:06:27.685Z,3.37
2022-08-29T08:08:55.660Z,3.37
2022-08-29T08:11:23.528Z,3.17
2022-08-29T08:13:52.162Z,3.40
2022-08-29T08:16:21.633Z,2.93
2022-08-29T08:18:48.920Z,3.13
2022-08-29T08:21:15.665Z,3.20
2022-08-29T08:23:42.553Z,3.53
2022-08-29T08:26:10.805Z,2.57
2022-08-29T08:28:37.857Z,2.80
2022-08-29T08:31:06.984Z,3.43
2022-08-29T08:33:35.411Z,3.60
2022-08-29T08:36:04.071Z,3.20
2022-08-29T08:38:31.680Z,3.10
2022-08-29T08:41:07.114Z,2.80
2022-08-29T08:43:50.441Z,2.70
2022-08-29T08:46:18.808Z,3.20
2022-08-29T08:48:49.081Z,2.87
2022-08-29T08:51:23.677Z,3.37
2022-08-29T08:53:54.504Z,3.10
2022-08-29T08:56:48.017Z,3.27
2022-08-29T08:59:39.528Z,3.30
2022-08-29T09:02:37.109Z,3.30
2022-08-29T09:05:48.629Z,3.50
2022-08-29T09:08:16.136Z,3.10
2022-08-29T09:11:03.316Z,3.57
2022-08-29T09:13:36.071Z,3.23
2022-08-29T09:16:09.560Z,3.77
2022-08-29T09:18:43.549Z,3.63
2022-08-29T09:21:40.749Z,3.07
2022-08-29T09:24:13.704Z,3.90
2022-08-29T09:26:40.925Z,3.70
2022-08-29T09:29:10.100Z,3.13
2022-08-29T09:31:37.678Z,3.83
2022-08-29T09:34:12.266Z,3.47
2022-08-29T09:36:47.816Z,3.60
2022-08-29T09:39:33.438Z,3.73
2022-08-29T09:42:12.044Z,3.97
2022-08-29T09:44:40.994Z,3.67
2022-08-29T09:47:34.054Z,3.50
2022-08-29T09:50:09.492Z,3.80
2022-08-29T09:52:40.752Z,3.43
2022-08-29T09:55:33.525Z,3.67
2022-08-29T09:58:07.063Z,3.90
2022-08-29T10:00:38.172Z,3.43
2022-08-29T10:03:10.811Z,3.50
2022-08-29T10:05:44.888Z,4.00
2022-08-29T10:08:25.182Z,3.50
2022-08-29T10:10:55.727Z,3.90
2022-08-29T10:13:38.245Z,4.13
2022-08-29T10:16:23.573Z,3.70
2022-08-29T10:18:59.309Z,3.70
2022-08-29T10:21:48.147Z,3.43
2022-08-29T10:24:42.892Z,3.70
2022-08-29T10:27:09.664Z,3.10
2022-08-29T10:29:39.250Z,3.00
2022-08-29T10:32:29.243Z,3.20
2022-08-29T10:35:06.192Z,3.50
2022-08-29T10:37:43.126Z,3.33
2022-08-29T10:40:31.031Z,3.20
2022-08-29T10:43:23.630Z,3.50
2022-08-29T10:46:11.843Z,3.40
2022-08-29T10:48:58.756Z,3.57
2022-08-29T10:51:41.009Z,3.10
2022-08-29T10:54:31.608Z,3.47
2022-08-29T10:57:01.798Z,3.40
2022-08-29T10:59:54.631Z,3.07
2022-08-29T11:02:32.575Z,3.37
2022-08-29T11:05:02.782Z,3.20
2022-08-29T11:07:35.021Z,3.27
2022-08-29T11:10:16.116Z,3.20
2022-08-29T11:13:09.893Z,3.50
2022-08-29T11:15:45.234Z,3.60
2022-08-29T11:18:30.115Z,4.10
2022-08-29T11:21:03.414Z,3.50
2022-08-29T11:23:38.809Z,3.90
2022-08-29T11:26:31.938Z,2.97
2022-08-29T11:29:04.937Z,3.37
2022-08-29T11:31:44.036Z,3.10
2022-08-29T11:34:55.616Z,3.30
2022-08-29T11:37:31.446Z,3.70
2022-08-29T11:40:01.070Z,3.43
2022-08-29T11:45:35.612Z,3.40
2022-08-29T11:48:44.579Z,3.43
2022-08-29T11:51:37.673Z,3.33
2022-08-29T11:54:28.890Z,3.63
2022-08-29T11:57:01.490Z,3.47
2022-08-29T11:59:57.211Z,3.30
2022-08-29T12:02:32.562Z,3.43
2022-08-29T12:05:14.490Z,3.10
2022-08-29T12:08:19.939Z,3.30
2022-08-29T12:10:53.322Z,3.23
2022-08-29T12:13:44.827Z,2.87
2022-08-29T12:16:17.298Z,3.87
2022-08-29T12:18:45.716Z,2.90
2022-08-29T12:21:32.392Z,3.20
2022-08-29T12:23:59.315Z,3.70
2022-08-29T12:26:45.002Z,3.30
2022-08-29T12:29:22.119Z,3.73
2022-08-29T12:32:28.546Z,3.40
2022-08-29T12:35:07.376Z,3.73
2022-08-29T12:38:03.652Z,3.07
2022-08-29T12:40:52.592Z,3.33
2022-08-29T12:43:28.423Z,3.67
2022-08-29T12:45:56.065Z,3.30
2022-08-29T12:48:38.007Z,3.20
2022-08-29T12:51:05.163Z,3.63
2022-08-29T12:53:35.043Z,3.30
2022-08-29T12:56:13.480Z,3.43
2022-08-29T12:58:42.073Z,3.10
2022-08-29T13:01:31.978Z,3.33
2022-08-29T13:04:32.145Z,3.20
2022-08-29T13:07:05.257Z,3.20
2022-08-29T13:09:34.539Z,3.10
2022-08-29T13:12:22.212Z,2.80
2022-08-29T13:14:55.453Z,3.80
2022-08-29T13:17:45.256Z,3.60
2022-08-29T13:20:43.330Z,3.40
2022-08-29T13:23:13.718Z,3.47
2022-08-29T13:26:01.092Z,3.80
2022-08-29T13:28:35.764Z,3.50
2022-08-29T13:31:04.756Z,3.80
2022-08-29T13:33:35.294Z,3.93
2022-08-29T13:36:28.739Z,3.37
2022-08-29T13:39:25.372Z,4.00
2022-08-29T13:42:01.777Z,3.47
2022-08-29T13:44:28.293Z,2.97
2022-08-29T13:46:59.440Z,3.33
2022-08-29T13:49:29.776Z,3.30
2022-08-29T13:51:56.761Z,3.17
2022-08-29T13:54:25.139Z,3.10
2022-08-29T13:56:57.781Z,3.77
2022-08-29T13:59:27.552Z,3.77
2022-08-29T14:02:11.326Z,3.23
2022-08-29T14:04:41.203Z,3.30
2022-08-29T14:07:17.798Z,3.40
2022-08-29T14:09:46.472Z,3.47
2022-08-29T14:12:14.777Z,3.33
2022-08-29T14:14:43.245Z,2.90
2022-08-29T14:17:11.663Z,3.40
2022-08-29T14:19:45.323Z,3.30
2022-08-29T14:22:11.956Z,3.70
2022-08-29T14:24:41.285Z,3.70
2022-08-29T14:27:08.789Z,3.70
2022-08-29T14:29:35.799Z,3.70
2022-08-29T14:32:03.540Z,3.70
2022-08-29T14:34:32.471Z,3.70
2022-08-29T14:37:01.200Z,4.17
2022-08-29T14:39:28.492Z,3.70
2022-08-29T14:41:55.650Z,3.93
2022-08-29T14:44:22.416Z,3.97
2022-08-29T14:46:51.918Z,3.77
2022-08-29T14:49:19.277Z,3.53
2022-08-29T14:51:45.853Z,3.87
2022-08-29T14:54:13.044Z,4.00
2022-08-29T14:56:48.835Z,3.60
2022-08-29T14:59:17.654Z,3.70
2022-08-29T15:01:44.360Z,3.60
2022-08-29T15:04:11.267Z,3.40
2022-08-29T15:06:39.948Z,3.47
2022-08-29T15:09:06.696Z,3.47
2022-08-29T15:11:33.369Z,3.00
2022-08-29T15:14:04.500Z,3.57
2022-08-29T15:16:32.791Z,3.50
2022-08-29T15:21:46.050Z,3.33
2022-08-29T15:24:12.660Z,3.33
2022-08-29T15:26:39.307Z,3.23
2022-08-29T15:29:08.602Z,3.50
2022-08-29T15:31:35.242Z,3.33
2022-08-29T15:34:01.959Z,3.27
2022-08-29T15:36:28.646Z,3.13
2022-08-29T15:38:55.233Z,3.10
2022-08-29T15:41:21.975Z,3.47
2022-08-29T15:43:48.779Z,3.50
2022-08-29T15:46:15.519Z,3.23
2022-08-29T15:48:44.642Z,3.30
2022-08-29T15:51:11.347Z,3.23
2022-08-29T15:53:38.138Z,3.27
2022-08-29T15:56:04.905Z,2.97
2022-08-29T15:58:31.504Z,2.63
2022-08-29T16:00:58.736Z,3.33
2022-08-29T16:03:31.902Z,3.00
2022-08-29T16:05:59.511Z,3.30
2022-08-29T16:08:29.785Z,2.93
2022-08-29T16:10:58.000Z,3.00
2022-08-29T16:13:25.123Z,2.93
2022-08-29T16:15:52.057Z,3.70
2022-08-29T16:18:18.908Z,3.10
2022-08-29T16:20:53.541Z,3.37
2022-08-29T16:23:23.435Z,3.50
2022-08-29T16:25:49.991Z,2.90
2022-08-29T16:28:16.747Z,3.10
2022-08-29T16:30:44.479Z,2.60
2022-08-29T16:33:13.207Z,3.20
2022-08-29T16:35:39.916Z,3.03
2022-08-29T16:38:06.534Z,3.20
2022-08-29T16:40:33.243Z,3.00
2022-08-29T16:43:01.852Z,2.60
2022-08-29T16:45:28.610Z,2.70
2022-08-29T16:47:57.578Z,2.63
2022-08-29T16:50:25.870Z,3.03
2022-08-29T16:52:52.523Z,2.83
2022-08-29T16:55:19.804Z,2.60
2022-08-29T16:58:06.391Z,2.83
2022-08-29T17:00:33.203Z,2.80
2022-08-29T17:03:00.083Z,2.70
2022-08-29T17:05:27.289Z,2.53
2022-08-29T17:07:53.907Z,2.80
2022-08-29T17:10:20.452Z,2.53
2022-08-29T17:12:47.024Z,2.60
2022-08-29T17:15:13.600Z,2.47
2022-08-29T17:17:40.515Z,3.00
2022-08-29T17:20:08.018Z,2.83
2022-08-29T17:22:34.767Z,2.30
2022-08-29T17:25:02.005Z,2.80
2022-08-29T17:27:30.199Z,3.17
2022-08-29T17:29:57.101Z,2.57
2022-08-29T17:32:23.669Z,3.03
2022-08-29T17:34:50.460Z,2.60
2022-08-29T17:37:17.917Z,2.50
2022-08-29T17:39:48.092Z,2.70
2022-08-29T17:42:14.604Z,2.70
2022-08-29T17:44:42.048Z,2.83
2022-08-29T17:47:08.583Z,2.67
2022-08-29T17:49:35.154Z,2.50
2022-08-29T17:52:02.373Z,2.40
2022-08-29T17:54:29.036Z,2.87
2022-08-29T17:57:00.305Z,3.10
2022-08-29T17:59:30.497Z,2.67
2022-08-29T18:01:57.842Z,3.03
2022-08-29T18:04:26.840Z,2.97
2022-08-29T18:06:55.250Z,2.40
2022-08-29T18:09:23.566Z,2.80
2022-08-29T18:11:52.954Z,3.07
2022-08-29T18:14:22.702Z,3.13
2022-08-29T18:16:50.205Z,2.80
2022-08-29T18:19:17.020Z,3.17
2022-08-29T18:21:44.461Z,3.40
2022-08-29T18:24:13.888Z,3.43
2022-08-29T18:26:43.813Z,3.40
2022-08-29T18:29:10.813Z,3.10
2022-08-29T18:31:37.488Z,3.63
2022-08-29T18:34:05.738Z,3.10
2022-08-29T18:36:34.490Z,2.93
2022-08-29T18:39:03.088Z,3.40
2022-08-29T18:41:30.082Z,3.97
2022-08-29T18:43:57.125Z,3.50
2022-08-29T18:46:23.731Z,3.30
2022-08-29T18:48:50.868Z,3.10
2022-08-29T18:51:18.194Z,3.23
2022-08-29T18:53:45.213Z,3.93
2022-08-29T18:56:12.136Z,3.40
2022-08-29T18:58:41.284Z,3.80
2022-08-29T19:01:27.743Z,3.20
2022-08-29T19:04:00.120Z,3.50
2022-08-29T19:06:27.422Z,3.33
2022-08-29T19:08:56.611Z,3.70
2022-08-29T19:11:23.673Z,3.63
2022-08-29T19:13:52.183Z,3.27
2022-08-29T19:16:21.701Z,3.47
2022-08-29T19:18:49.157Z,4.03
2022-08-29T19:21:15.792Z,4.03
2022-08-29T19:23:45.605Z,6.47
2022-08-29T19:26:19.404Z,7.77
2022-08-29T19:28:47.090Z,7.57
2022-08-29T19:31:16.376Z,7.07
2022-08-29T19:33:44.723Z,6.53
2022-08-29T19:36:12.040Z,6.63
2022-08-29T19:38:41.305Z,6.20
2022-08-29T19:41:08.511Z,6.57
2022-08-29T19:43:36.693Z,6.30
2022-08-29T19:46:09.587Z,5.43
2022-08-29T19:48:36.190Z,5.53
2022-08-29T19:51:09.614Z,5.70
2022-08-29T19:53:41.514Z,5.90
2022-08-29T19:56:09.208Z,6.27
2022-08-29T19:58:37.251Z,5.53
2022-08-29T20:01:06.987Z,5.60
2022-08-29T20:03:36.994Z,5.20
2022-08-29T20:06:07.574Z,4.10
2022-08-29T20:08:36.639Z,4.33
2022-08-29T20:11:03.672Z,3.63
2022-08-29T20:13:35.799Z,4.10
2022-08-29T20:16:03.399Z,4.10
2022-08-29T20:18:30.016Z,4.43
2022-08-29T20:20:56.619Z,3.83
2022-08-29T20:23:23.269Z,3.80
2022-08-29T20:25:49.853Z,3.60
2022-08-29T20:28:16.608Z,3.17
2022-08-29T20:30:44.210Z,3.53
2022-08-29T20:33:13.937Z,3.37
2022-08-29T20:35:59.027Z,3.00
2022-08-29T20:38:25.614Z,3.10
2022-08-29T20:40:52.262Z,3.10
2022-08-29T20:43:19.799Z,2.77
2022-08-29T20:45:46.927Z,3.27
2022-08-29T20:48:14.283Z,3.30
2022-08-29T20:50:41.445Z,2.93
2022-08-29T20:53:08.795Z,3.37
2022-08-29T20:55:40.541Z,3.60
2022-08-29T20:58:07.107Z,3.87
2022-08-29T21:00:33.908Z,3.43
2022-08-29T21:03:19.030Z,3.17
2022-08-29T21:05:46.014Z,3.17
2022-08-29T21:08:21.467Z,3.40
2022-08-29T21:10:49.785Z,3.13
2022-08-29T21:13:17.614Z,3.30
2022-08-29T21:15:45.483Z,2.90
2022-08-29T21:18:16.144Z,3.13
2022-08-29T21:20:54.473Z,2.83
2022-08-29T21:23:23.348Z,3.20
2022-08-29T21:25:55.298Z,3.17
2022-08-29T21:28:22.126Z,3.03
2022-08-29T21:30:49.361Z,3.40
2022-08-29T21:33:16.395Z,3.30
2022-08-29T21:35:43.387Z,3.30
2022-08-29T21:38:11.247Z,3.40
2022-08-29T21:40:44.114Z,3.43
2022-08-29T21:43:17.779Z,3.00
2022-08-29T21:45:44.461Z,2.83
2022-08-29T21:48:11.187Z,3.20
2022-08-29T21:50:38.544Z,3.30
2022-08-29T21:53:05.770Z,3.20
2022-08-29T21:55:33.045Z,3.30
2022-08-29T21:58:00.993Z,3.13
2022-08-29T22:00:34.214Z,3.50
2022-08-29T22:03:03.262Z,2.80
2022-08-29T22:05:32.240Z,3.57
2022-08-29T22:08:00.980Z,3.70
2022-08-29T22:10:31.130Z,3.43
2022-08-29T22:12:58.550Z,2.67
2022-08-29T22:15:44.363Z,3.43
2022-08-29T22:18:14.867Z,2.70
2022-08-29T22:20:42.952Z,3.03
2022-08-29T22:23:10.975Z,2.80
2022-08-29T22:25:37.673Z,3.43
2022-08-29T22:28:04.936Z,3.27
2022-08-29T22:30:32.682Z,3.00
2022-08-29T22:33:01.171Z,2.90
2022-08-29T22:35:28.238Z,3.20
2022-08-29T22:37:55.159Z,3.20
2022-08-29T22:40:21.933Z,3.10
2022-08-29T22:42:48.743Z,3.27
2022-08-29T22:45:16.371Z,3.43
2022-08-29T22:47:46.735Z,3.80
2022-08-29T22:50:18.108Z,3.23
2022-08-29T22:52:45.319Z,2.90
2022-08-29T22:55:15.638Z,3.77
2022-08-29T22:57:45.210Z,3.27
2022-08-29T23:00:16.880Z,3.53
2022-08-29T23:02:43.653Z,3.43
2022-08-29T23:05:10.766Z,3.50
2022-08-29T23:07:37.699Z,3.00
2022-08-29T23:10:06.901Z,3.47
2022-08-29T23:12:36.397Z,3.67
2022-08-29T23:15:11.174Z,3.30
2022-08-29T23:17:37.815Z,3.37
2022-08-29T23:20:06.625Z,3.50
2022-08-29T23:22:33.513Z,3.30
2022-08-29T23:25:00.442Z,3.77
2022-08-29T23:27:32.019Z,3.50
2022-08-29T23:30:00.692Z,3.63
2022-08-29T23:32:27.801Z,3.97
2022-08-29T23:34:54.978Z,3.63
2022-08-29T23:37:21.590Z,4.00
2022-08-29T23:39:48.201Z,3.70
2022-08-29T23:42:15.411Z,3.60
2022-08-29T23:44:42.049Z,3.57
2022-08-29T23:47:08.720Z,3.77
2022-08-29T23:49:35.423Z,3.70
2022-08-29T23:52:02.215Z,3.87
2022-08-29T23:54:31.289Z,4.10
2022-08-29T23:56:57.936Z,3.83
2022-08-29T23:59:43.067Z,3.90
